sensor_id;sensor_type;location;lat;lon;timestamp;pressure;altitude;pressure_sealevel;temperature;humidity
43155;BME280;34212;51.018;13.586;2022-11-20T00:02:19;97420.34;;;-2.14;76.05
43155;BME280;34212;51.018;13.586;2022-11-20T00:07:20;97420.16;;;-2.23;75.83
43155;BME280;34212;51.018;13.586;2022-11-20T00:12:22;97420.75;;;-2.44;75.73
43155;BME280;34212;51.018;13.586;2022-11-20T00:17:23;97416.25;;;-2.42;76.04
43155;BME280;34212;51.018;13.586;2022-11-20T00:22:25;97413.41;;;-2.39;75.94
43155;BME280;34212;51.018;13.586;2022-11-20T00:27:26;97418.75;;;-2.40;76.27
43155;BME280;34212;51.018;13.586;2022-11-20T00:32:27;97427.53;;;-2.41;76.02
43155;BME280;34212;51.018;13.586;2022-11-20T00:37:29;97428.97;;;-2.37;75.94
43155;BME280;34212;51.018;13.586;2022-11-20T00:42:30;97434.38;;;-2.27;75.97
43155;BME280;34212;51.018;13.586;2022-11-20T00:47:33;97434.88;;;-2.22;75.82
43155;BME280;34212;51.018;13.586;2022-11-20T00:52:35;97436.06;;;-2.26;75.59
43155;BME280;34212;51.018;13.586;2022-11-20T00:57:36;97438.16;;;-2.32;75.40
43155;BME280;34212;51.018;13.586;2022-11-20T01:02:37;97441.94;;;-2.36;75.53
43155;BME280;34212;51.018;13.586;2022-11-20T01:07:39;97441.63;;;-2.44;75.31
43155;BME280;34212;51.018;13.586;2022-11-20T01:12:40;97435.28;;;-2.52;75.17
43155;BME280;34212;51.018;13.586;2022-11-20T01:17:42;97435.94;;;-2.62;74.98
43155;BME280;34212;51.018;13.586;2022-11-20T01:22:43;97433.25;;;-2.86;75.30
43155;BME280;34212;51.018;13.586;2022-11-20T01:27:45;97442.84;;;-2.86;75.65
43155;BME280;34212;51.018;13.586;2022-11-20T01:32:46;97442.00;;;-2.74;75.17
43155;BME280;34212;51.018;13.586;2022-11-20T01:37:47;97428.63;;;-2.69;74.65
43155;BME280;34212;51.018;13.586;2022-11-20T01:42:55;97420.38;;;-2.63;74.40
43155;BME280;34212;51.018;13.586;2022-11-20T01:48:21;97416.94;;;-2.64;74.83
43155;BME280;34212;51.018;13.586;2022-11-20T01:53:25;97414.19;;;-2.62;74.85
43155;BME280;34212;51.018;13.586;2022-11-20T01:58:32;97409.94;;;-2.63;75.07
43155;BME280;34212;51.018;13.586;2022-11-20T02:03:36;97413.78;;;-2.56;75.05
43155;BME280;34212;51.018;13.586;2022-11-20T02:08:38;97414.38;;;-2.52;74.53
43155;BME280;34212;51.018;13.586;2022-11-20T02:13:40;97406.16;;;-2.59;74.77
43155;BME280;34212;51.018;13.586;2022-11-20T02:18:46;97404.28;;;-2.57;74.51
43155;BME280;34212;51.018;13.586;2022-11-20T02:29:10;97392.88;;;-2.56;74.30
43155;BME280;34212;51.018;13.586;2022-11-20T02:34:12;97391.22;;;-2.57;74.27
43155;BME280;34212;51.018;13.586;2022-11-20T02:39:14;97384.56;;;-2.61;74.52
43155;BME280;34212;51.018;13.586;2022-11-20T02:44:18;97386.22;;;-2.60;74.51
43155;BME280;34212;51.018;13.586;2022-11-20T02:49:19;97387.25;;;-2.63;74.50
43155;BME280;34212;51.018;13.586;2022-11-20T02:54:21;97385.91;;;-2.68;74.19
43155;BME280;34212;51.018;13.586;2022-11-20T02:59:23;97381.84;;;-2.72;74.00
43155;BME280;34212;51.018;13.586;2022-11-20T03:04:24;97379.59;;;-2.77;74.28
43155;BME280;34212;51.018;13.586;2022-11-20T03:09:26;97385.72;;;-2.78;74.10
43155;BME280;34212;51.018;13.586;2022-11-20T03:14:27;97378.63;;;-2.76;74.07
43155;BME280;34212;51.018;13.586;2022-11-20T03:19:29;97369.97;;;-2.76;74.05
43155;BME280;34212;51.018;13.586;2022-11-20T03:24:30;97378.72;;;-2.78;74.00
43155;BME280;34212;51.018;13.586;2022-11-20T03:29:32;97370.69;;;-2.74;74.13
43155;BME280;34212;51.018;13.586;2022-11-20T03:34:33;97369.03;;;-2.75;74.32
43155;BME280;34212;51.018;13.586;2022-11-20T03:39:34;97372.78;;;-2.80;74.01
43155;BME280;34212;51.018;13.586;2022-11-20T03:44:36;97367.88;;;-2.84;73.87
43155;BME280;34212;51.018;13.586;2022-11-20T03:49:37;97377.72;;;-2.88;74.08
43155;BME280;34212;51.018;13.586;2022-11-20T03:54:39;97371.47;;;-2.98;73.83
43155;BME280;34212;51.018;13.586;2022-11-20T03:59:40;97365.44;;;-3.11;73.87
43155;BME280;34212;51.018;13.586;2022-11-20T04:04:41;97363.53;;;-3.22;73.70
43155;BME280;34212;51.018;13.586;2022-11-20T04:09:43;97363.88;;;-3.27;73.87
43155;BME280;34212;51.018;13.586;2022-11-20T04:14:44;97365.41;;;-3.24;73.80
43155;BME280;34212;51.018;13.586;2022-11-20T04:19:46;97352.38;;;-3.24;73.85
43155;BME280;34212;51.018;13.586;2022-11-20T04:24:47;97351.53;;;-3.25;73.64
43155;BME280;34212;51.018;13.586;2022-11-20T04:29:49;97341.22;;;-3.26;73.78
43155;BME280;34212;51.018;13.586;2022-11-20T04:34:50;97336.09;;;-3.28;73.83
43155;BME280;34212;51.018;13.586;2022-11-20T04:39:51;97328.28;;;-3.28;73.94
43155;BME280;34212;51.018;13.586;2022-11-20T04:44:53;97324.44;;;-3.22;73.96
43155;BME280;34212;51.018;13.586;2022-11-20T04:49:54;97327.66;;;-3.18;73.89
43155;BME280;34212;51.018;13.586;2022-11-20T04:54:56;97335.25;;;-3.15;74.05
43155;BME280;34212;51.018;13.586;2022-11-20T04:59:57;97336.00;;;-3.13;73.85
43155;BME280;34212;51.018;13.586;2022-11-20T05:04:59;97341.00;;;-3.10;73.41
43155;BME280;34212;51.018;13.586;2022-11-20T05:10:00;97346.31;;;-3.12;73.58
43155;BME280;34212;51.018;13.586;2022-11-20T05:15:02;97343.91;;;-3.15;73.72
43155;BME280;34212;51.018;13.586;2022-11-20T05:20:04;97338.09;;;-3.18;73.84
43155;BME280;34212;51.018;13.586;2022-11-20T05:25:05;97343.94;;;-3.28;73.58
43155;BME280;34212;51.018;13.586;2022-11-20T05:30:07;97346.25;;;-3.36;73.71
43155;BME280;34212;51.018;13.586;2022-11-20T05:35:09;97333.63;;;-3.42;73.52
43155;BME280;34212;51.018;13.586;2022-11-20T05:40:11;97338.31;;;-3.47;73.29
43155;BME280;34212;51.018;13.586;2022-11-20T05:45:12;97335.16;;;-3.52;73.75
43155;BME280;34212;51.018;13.586;2022-11-20T05:50:14;97328.50;;;-3.56;73.66
43155;BME280;34212;51.018;13.586;2022-11-20T05:55:16;97333.50;;;-3.53;74.02
43155;BME280;34212;51.018;13.586;2022-11-20T06:00:17;97323.72;;;-3.50;74.04
43155;BME280;34212;51.018;13.586;2022-11-20T06:05:19;97321.84;;;-3.47;74.04
43155;BME280;34212;51.018;13.586;2022-11-20T06:10:20;97310.16;;;-3.42;74.30
43155;BME280;34212;51.018;13.586;2022-11-20T06:15:21;97314.44;;;-3.41;74.28
43155;BME280;34212;51.018;13.586;2022-11-20T06:20:23;97315.16;;;-3.39;74.06
43155;BME280;34212;51.018;13.586;2022-11-20T06:25:24;97314.97;;;-3.36;73.71
43155;BME280;34212;51.018;13.586;2022-11-20T06:30:26;97301.31;;;-3.39;73.81
43155;BME280;34212;51.018;13.586;2022-11-20T06:35:27;97303.91;;;-3.39;73.56
43155;BME280;34212;51.018;13.586;2022-11-20T06:40:28;97302.34;;;-3.42;73.38
43155;BME280;34212;51.018;13.586;2022-11-20T06:45:30;97306.06;;;-3.46;73.50
43155;BME280;34212;51.018;13.586;2022-11-20T06:50:31;97305.16;;;-3.45;73.69
43155;BME280;34212;51.018;13.586;2022-11-20T06:55:32;97301.59;;;-3.44;73.59
43155;BME280;34212;51.018;13.586;2022-11-20T07:00:34;97303.06;;;-3.40;73.53
43155;BME280;34212;51.018;13.586;2022-11-20T07:05:35;97309.00;;;-3.38;73.53
43155;BME280;34212;51.018;13.586;2022-11-20T07:10:37;97301.81;;;-3.34;73.97
43155;BME280;34212;51.018;13.586;2022-11-20T07:15:39;97307.13;;;-3.23;73.83
43155;BME280;34212;51.018;13.586;2022-11-20T07:20:40;97298.66;;;-3.14;73.98
43155;BME280;34212;51.018;13.586;2022-11-20T07:25:41;97302.19;;;-3.15;73.99
43155;BME280;34212;51.018;13.586;2022-11-20T07:30:49;97299.56;;;-3.15;74.44
43155;BME280;34212;51.018;13.586;2022-11-20T07:35:51;97290.31;;;-3.19;74.59
43155;BME280;34212;51.018;13.586;2022-11-20T07:40:56;97282.56;;;-3.08;74.50
43155;BME280;34212;51.018;13.586;2022-11-20T07:45:58;97284.19;;;-2.94;74.65
43155;BME280;34212;51.018;13.586;2022-11-20T07:51:00;97294.97;;;-2.74;74.95
43155;BME280;34212;51.018;13.586;2022-11-20T07:56:02;97286.63;;;-2.67;75.00
43155;BME280;34212;51.018;13.586;2022-11-20T08:01:08;97279.69;;;-2.55;75.14
43155;BME280;34212;51.018;13.586;2022-11-20T08:06:09;97273.81;;;-2.35;74.94
43155;BME280;34212;51.018;13.586;2022-11-20T08:11:11;97278.97;;;-2.22;74.64
43155;BME280;34212;51.018;13.586;2022-11-20T08:16:31;97287.13;;;-2.02;75.13
43155;BME280;34212;51.018;13.586;2022-11-20T08:21:32;97283.25;;;-1.86;74.64
43155;BME280;34212;51.018;13.586;2022-11-20T08:26:39;97273.88;;;-1.66;75.02
43155;BME280;34212;51.018;13.586;2022-11-20T08:31:41;97279.00;;;-1.53;74.81
43155;BME280;34212;51.018;13.586;2022-11-20T08:36:43;97273.81;;;-1.42;74.96
43155;BME280;34212;51.018;13.586;2022-11-20T08:41:44;97273.56;;;-1.27;74.96
43155;BME280;34212;51.018;13.586;2022-11-20T08:46:45;97263.81;;;-1.14;75.13
43155;BME280;34212;51.018;13.586;2022-11-20T08:51:48;97258.56;;;-1.03;74.63
43155;BME280;34212;51.018;13.586;2022-11-20T08:56:52;97255.19;;;-0.94;74.98
43155;BME280;34212;51.018;13.586;2022-11-20T09:01:54;97247.34;;;-0.82;75.22
43155;BME280;34212;51.018;13.586;2022-11-20T09:06:55;97241.13;;;-0.70;75.32
43155;BME280;34212;51.018;13.586;2022-11-20T09:11:57;97231.56;;;-0.60;75.56
43155;BME280;34212;51.018;13.586;2022-11-20T09:16:58;97235.81;;;-0.48;75.42
43155;BME280;34212;51.018;13.586;2022-11-20T09:22:00;97237.16;;;-0.32;75.48
43155;BME280;34212;51.018;13.586;2022-11-20T09:27:03;97233.28;;;-0.17;75.79
43155;BME280;34212;51.018;13.586;2022-11-20T09:32:05;97238.34;;;-0.04;76.14
43155;BME280;34212;51.018;13.586;2022-11-20T09:37:06;97249.47;;;0.09;76.03
43155;BME280;34212;51.018;13.586;2022-11-20T09:42:30;97240.47;;;0.23;76.18
43155;BME280;34212;51.018;13.586;2022-11-20T09:48:14;97244.84;;;0.43;76.05
43155;BME280;34212;51.018;13.586;2022-11-20T09:58:46;97232.97;;;0.80;76.23
43155;BME280;34212;51.018;13.586;2022-11-20T10:03:59;97226.69;;;1.02;76.47
43155;BME280;34212;51.018;13.586;2022-11-20T10:20:01;97194.97;;;1.44;76.70
43155;BME280;34212;51.018;13.586;2022-11-20T10:25:19;97191.25;;;1.56;76.73
43155;BME280;34212;51.018;13.586;2022-11-20T10:30:21;97195.78;;;1.64;76.94
43155;BME280;34212;51.018;13.586;2022-11-20T10:35:27;97208.81;;;1.75;76.97
43155;BME280;34212;51.018;13.586;2022-11-20T10:40:44;97211.56;;;1.83;76.61
43155;BME280;34212;51.018;13.586;2022-11-20T10:56:30;97205.19;;;1.85;77.70
43155;BME280;34212;51.018;13.586;2022-11-20T11:01:41;97208.47;;;2.07;77.86
43155;BME280;34212;51.018;13.586;2022-11-20T11:06:47;97209.72;;;2.13;77.85
43155;BME280;34212;51.018;13.586;2022-11-20T11:11:49;97204.59;;;2.11;77.51
43155;BME280;34212;51.018;13.586;2022-11-20T11:16:55;97197.44;;;1.74;76.33
43155;BME280;34212;51.018;13.586;2022-11-20T11:21:58;97203.81;;;1.52;76.57
43155;BME280;34212;51.018;13.586;2022-11-20T11:27:11;97191.34;;;1.64;76.54
43155;BME280;34212;51.018;13.586;2022-11-20T11:32:19;97185.69;;;1.78;76.77
43155;BME280;34212;51.018;13.586;2022-11-20T11:37:21;97176.84;;;1.70;76.13
43155;BME280;34212;51.018;13.586;2022-11-20T11:42:24;97161.63;;;1.64;75.90
43155;BME280;34212;51.018;13.586;2022-11-20T11:47:29;97152.38;;;1.50;76.00
43155;BME280;34212;51.018;13.586;2022-11-20T12:07:58;97145.69;;;1.65;76.36
43155;BME280;34212;51.018;13.586;2022-11-20T12:18:31;97125.22;;;1.78;76.84
43155;BME280;34212;51.018;13.586;2022-11-20T12:29:11;97132.34;;;1.96;77.10
43155;BME280;34212;51.018;13.586;2022-11-20T12:56:48;97119.69;;;1.72;77.48
43155;BME280;34212;51.018;13.586;2022-11-20T13:07:29;97106.06;;;1.96;77.51
43155;BME280;34212;51.018;13.586;2022-11-20T13:12:43;97103.84;;;2.01;77.49
43155;BME280;34212;51.018;13.586;2022-11-20T13:17:57;97108.13;;;2.02;77.32
43155;BME280;34212;51.018;13.586;2022-11-20T13:23:00;97116.19;;;1.91;76.75
43155;BME280;34212;51.018;13.586;2022-11-20T13:28:26;97104.84;;;1.80;76.87
43155;BME280;34212;51.018;13.586;2022-11-20T13:33:31;97100.03;;;1.76;77.40
43155;BME280;34212;51.018;13.586;2022-11-20T13:38:44;97095.03;;;1.82;77.49
43155;BME280;34212;51.018;13.586;2022-11-20T13:43:48;97090.31;;;1.86;76.92
43155;BME280;34212;51.018;13.586;2022-11-20T13:48:51;97097.69;;;1.73;77.12
43155;BME280;34212;51.018;13.586;2022-11-20T14:04:33;97094.53;;;1.40;77.21
43155;BME280;34212;51.018;13.586;2022-11-20T14:09:36;97097.72;;;1.34;77.11
43155;BME280;34212;51.018;13.586;2022-11-20T14:14:47;97105.78;;;1.32;77.61
43155;BME280;34212;51.018;13.586;2022-11-20T14:19:51;97094.84;;;1.27;77.23
43155;BME280;34212;51.018;13.586;2022-11-20T14:25:06;97096.09;;;1.23;77.62
43155;BME280;34212;51.018;13.586;2022-11-20T14:30:43;97104.81;;;1.14;77.59
43155;BME280;34212;51.018;13.586;2022-11-20T14:35:53;97109.78;;;0.98;77.88
43155;BME280;34212;51.018;13.586;2022-11-20T14:41:16;97100.63;;;0.82;77.89
43155;BME280;34212;51.018;13.586;2022-11-20T14:46:18;97089.56;;;0.69;78.09
43155;BME280;34212;51.018;13.586;2022-11-20T14:51:28;97078.22;;;0.59;78.16
43155;BME280;34212;51.018;13.586;2022-11-20T14:56:30;97082.22;;;0.53;78.14
43155;BME280;34212;51.018;13.586;2022-11-20T15:01:32;97086.34;;;0.46;78.66
43155;BME280;34212;51.018;13.586;2022-11-20T15:06:35;97090.59;;;0.37;78.47
43155;BME280;34212;51.018;13.586;2022-11-20T15:11:36;97091.41;;;0.28;78.25
43155;BME280;34212;51.018;13.586;2022-11-20T15:16:39;97085.16;;;0.19;78.61
43155;BME280;34212;51.018;13.586;2022-11-20T15:21:40;97083.06;;;0.13;78.78
43155;BME280;34212;51.018;13.586;2022-11-20T15:26:42;97078.34;;;0.07;78.67
43155;BME280;34212;51.018;13.586;2022-11-20T15:31:44;97077.78;;;0.04;78.93
43155;BME280;34212;51.018;13.586;2022-11-20T15:36:46;97086.34;;;0.06;78.65
43155;BME280;34212;51.018;13.586;2022-11-20T15:41:47;97091.31;;;0.09;78.50
43155;BME280;34212;51.018;13.586;2022-11-20T15:46:49;97080.56;;;0.12;78.46
43155;BME280;34212;51.018;13.586;2022-11-20T15:51:50;97084.59;;;0.16;78.17
43155;BME280;34212;51.018;13.586;2022-11-20T15:56:53;97076.03;;;0.14;78.10
43155;BME280;34212;51.018;13.586;2022-11-20T16:01:55;97080.19;;;0.16;78.54
43155;BME280;34212;51.018;13.586;2022-11-20T16:06:56;97076.75;;;0.16;78.42
43155;BME280;34212;51.018;13.586;2022-11-20T16:11:58;97077.25;;;0.10;78.47
43155;BME280;34212;51.018;13.586;2022-11-20T16:17:03;97085.41;;;0.07;78.67
43155;BME280;34212;51.018;13.586;2022-11-20T16:22:04;97089.94;;;0.05;78.31
43155;BME280;34212;51.018;13.586;2022-11-20T16:27:05;97092.81;;;0.02;78.57
43155;BME280;34212;51.018;13.586;2022-11-20T16:32:07;97086.59;;;0.03;78.64
43155;BME280;34212;51.018;13.586;2022-11-20T16:37:09;97095.69;;;-0.02;78.41
43155;BME280;34212;51.018;13.586;2022-11-20T16:42:11;97094.31;;;-0.06;78.46
43155;BME280;34212;51.018;13.586;2022-11-20T16:47:12;97093.50;;;-0.06;78.70
43155;BME280;34212;51.018;13.586;2022-11-20T16:52:14;97098.84;;;-0.08;78.51
43155;BME280;34212;51.018;13.586;2022-11-20T16:57:15;97094.00;;;-0.12;78.48
43155;BME280;34212;51.018;13.586;2022-11-20T17:02:16;97090.69;;;-0.14;78.58
43155;BME280;34212;51.018;13.586;2022-11-20T17:07:18;97102.50;;;-0.20;78.77
43155;BME280;34212;51.018;13.586;2022-11-20T17:12:23;97104.00;;;-0.27;78.62
43155;BME280;34212;51.018;13.586;2022-11-20T17:18:19;97095.81;;;-0.34;78.70
43155;BME280;34212;51.018;13.586;2022-11-20T17:24:08;97093.56;;;-0.38;78.73
43155;BME280;34212;51.018;13.586;2022-11-20T17:30:16;97093.53;;;-0.48;78.15
43155;BME280;34212;51.018;13.586;2022-11-20T17:35:17;97081.91;;;-0.55;78.60
43155;BME280;34212;51.018;13.586;2022-11-20T17:40:18;97089.88;;;-0.57;78.55
43155;BME280;34212;51.018;13.586;2022-11-20T17:45:27;97087.75;;;-0.63;78.38
43155;BME280;34212;51.018;13.586;2022-11-20T17:50:28;97086.25;;;-0.65;78.23
43155;BME280;34212;51.018;13.586;2022-11-20T17:55:30;97074.09;;;-0.66;78.13
43155;BME280;34212;51.018;13.586;2022-11-20T18:01:03;97069.69;;;-0.66;78.40
43155;BME280;34212;51.018;13.586;2022-11-20T18:06:12;97060.63;;;-0.62;78.00
43155;BME280;34212;51.018;13.586;2022-11-20T18:16:20;97049.59;;;-0.65;78.20
43155;BME280;34212;51.018;13.586;2022-11-20T18:21:22;97058.03;;;-0.62;78.15
43155;BME280;34212;51.018;13.586;2022-11-20T18:26:24;97072.88;;;-0.62;77.97
43155;BME280;34212;51.018;13.586;2022-11-20T18:31:26;97053.41;;;-0.70;77.27
43155;BME280;34212;51.018;13.586;2022-11-20T18:36:29;97058.06;;;-0.73;77.01
43155;BME280;34212;51.018;13.586;2022-11-20T18:41:31;97054.50;;;-0.72;77.80
43155;BME280;34212;51.018;13.586;2022-11-20T18:46:51;97051.50;;;-0.67;77.50
43155;BME280;34212;51.018;13.586;2022-11-20T18:51:53;97043.25;;;-0.63;77.35
43155;BME280;34212;51.018;13.586;2022-11-20T18:56:55;97041.59;;;-0.64;77.51
43155;BME280;34212;51.018;13.586;2022-11-20T19:01:56;97039.81;;;-0.63;77.00
43155;BME280;34212;51.018;13.586;2022-11-20T19:06:58;97032.78;;;-0.63;76.96
43155;BME280;34212;51.018;13.586;2022-11-20T19:11:59;97047.41;;;-0.60;76.98
43155;BME280;34212;51.018;13.586;2022-11-20T19:17:01;97027.00;;;-0.57;76.91
43155;BME280;34212;51.018;13.586;2022-11-20T19:22:03;97030.34;;;-0.55;76.85
43155;BME280;34212;51.018;13.586;2022-11-20T19:27:05;97014.63;;;-0.55;77.04
43155;BME280;34212;51.018;13.586;2022-11-20T19:32:06;97006.25;;;-0.49;77.47
43155;BME280;34212;51.018;13.586;2022-11-20T19:37:08;96997.59;;;-0.39;77.24
43155;BME280;34212;51.018;13.586;2022-11-20T19:42:10;97014.34;;;-0.31;77.10
43155;BME280;34212;51.018;13.586;2022-11-20T19:47:12;97004.84;;;-0.22;77.73
43155;BME280;34212;51.018;13.586;2022-11-20T19:52:15;96995.50;;;-0.15;77.74
43155;BME280;34212;51.018;13.586;2022-11-20T19:57:16;96995.78;;;-0.08;77.95
43155;BME280;34212;51.018;13.586;2022-11-20T20:02:18;96995.00;;;0.01;77.84
43155;BME280;34212;51.018;13.586;2022-11-20T20:07:19;96991.69;;;0.09;78.33
43155;BME280;34212;51.018;13.586;2022-11-20T20:12:21;96985.91;;;0.15;78.58
43155;BME280;34212;51.018;13.586;2022-11-20T20:17:22;96977.09;;;0.16;78.68
43155;BME280;34212;51.018;13.586;2022-11-20T20:22:24;96969.09;;;0.27;79.26
43155;BME280;34212;51.018;13.586;2022-11-20T20:27:25;96964.13;;;0.43;79.14
43155;BME280;34212;51.018;13.586;2022-11-20T20:32:30;96968.00;;;0.59;79.49
43155;BME280;34212;51.018;13.586;2022-11-20T20:38:37;96957.53;;;0.78;79.12
43155;BME280;34212;51.018;13.586;2022-11-20T20:43:46;96944.66;;;0.95;78.98
43155;BME280;34212;51.018;13.586;2022-11-20T20:50:08;96946.44;;;1.04;78.45
43155;BME280;34212;51.018;13.586;2022-11-20T20:56:24;96941.75;;;0.98;78.43
43155;BME280;34212;51.018;13.586;2022-11-20T21:02:02;96936.63;;;0.96;78.49
43155;BME280;34212;51.018;13.586;2022-11-20T21:07:09;96938.13;;;0.99;78.57
43155;BME280;34212;51.018;13.586;2022-11-20T21:12:52;96923.75;;;1.03;78.50
43155;BME280;34212;51.018;13.586;2022-11-20T21:47:54;96844.88;;;1.32;78.79
43155;BME280;34212;51.018;13.586;2022-11-20T22:22:15;96808.91;;;1.60;79.13
43155;BME280;34212;51.018;13.586;2022-11-20T22:27:17;96807.63;;;1.64;79.35
43155;BME280;34212;51.018;13.586;2022-11-20T22:32:18;96801.94;;;1.69;79.27
43155;BME280;34212;51.018;13.586;2022-11-20T22:37:20;96781.66;;;1.79;79.16
43155;BME280;34212;51.018;13.586;2022-11-20T22:42:21;96779.53;;;1.82;79.35
43155;BME280;34212;51.018;13.586;2022-11-20T22:47:22;96769.03;;;1.82;79.08
43155;BME280;34212;51.018;13.586;2022-11-20T22:52:24;96760.44;;;1.80;79.18
43155;BME280;34212;51.018;13.586;2022-11-20T22:57:25;96767.69;;;1.78;79.02
43155;BME280;34212;51.018;13.586;2022-11-20T23:02:27;96753.56;;;1.79;79.51
43155;BME280;34212;51.018;13.586;2022-11-20T23:07:28;96749.13;;;1.80;79.41
43155;BME280;34212;51.018;13.586;2022-11-20T23:12:31;96738.47;;;1.81;79.56
43155;BME280;34212;51.018;13.586;2022-11-20T23:17:33;96725.97;;;1.83;79.84
43155;BME280;34212;51.018;13.586;2022-11-20T23:22:34;96720.41;;;1.87;79.46
43155;BME280;34212;51.018;13.586;2022-11-20T23:27:36;96713.50;;;1.85;79.83
43155;BME280;34212;51.018;13.586;2022-11-20T23:32:37;96708.94;;;1.88;79.55
43155;BME280;34212;51.018;13.586;2022-11-20T23:37:39;96705.31;;;1.89;79.52
43155;BME280;34212;51.018;13.586;2022-11-20T23:42:40;96697.00;;;1.93;79.60
43155;BME280;34212;51.018;13.586;2022-11-20T23:48:01;96682.03;;;1.94;79.56
43155;BME280;34212;51.018;13.586;2022-11-20T23:53:03;96673.16;;;1.95;80.08
43155;BME280;34212;51.018;13.586;2022-11-20T23:58:04;96666.25;;;1.94;80.10
